createdAt,value
2023-01-29T00:00:14.385Z,21.80
2023-01-29T00:02:43.104Z,23.07
2023-01-29T00:08:01.557Z,23.40
2023-01-29T00:10:20.921Z,23.20
2023-01-29T00:10:30.011Z,22.80
2023-01-29T00:12:58.569Z,22.93
2023-01-29T00:15:26.982Z,23.40
2023-01-29T00:17:55.506Z,23.80
2023-01-29T00:20:23.909Z,24.07
2023-01-29T00:22:52.429Z,23.80
2023-01-29T00:25:22.243Z,23.80
2023-01-29T00:27:50.823Z,23.93
2023-01-29T00:30:21.046Z,23.20
2023-01-29T00:32:49.521Z,22.43
2023-01-29T00:35:18.047Z,24.10
2023-01-29T00:37:46.614Z,23.10
2023-01-29T00:40:15.692Z,23.63
2023-01-29T00:43:04.555Z,24.23
2023-01-29T00:45:34.113Z,22.80
2023-01-29T00:48:02.836Z,23.40
2023-01-29T00:50:32.160Z,21.83
2023-01-29T00:53:00.702Z,23.40
2023-01-29T00:55:29.277Z,22.60
2023-01-29T00:57:59.192Z,23.07
2023-01-29T01:00:27.577Z,23.40
2023-01-29T01:03:06.755Z,24.23
2023-01-29T01:05:37.076Z,22.80
2023-01-29T01:08:27.750Z,23.47
2023-01-29T01:11:03.101Z,22.23
2023-01-29T01:13:33.989Z,23.70
2023-01-29T01:16:03.089Z,22.70
2023-01-29T01:18:31.962Z,25.37
2023-01-29T01:21:00.418Z,22.53
2023-01-29T01:23:28.964Z,22.93
2023-01-29T01:25:57.424Z,21.93
2023-01-29T01:28:26.262Z,23.30
2023-01-29T01:30:56.303Z,21.97
2023-01-29T01:33:25.268Z,23.00
2023-01-29T01:35:53.730Z,19.80
2023-01-29T01:38:23.062Z,21.20
2023-01-29T01:40:51.501Z,23.30
2023-01-29T01:43:20.056Z,21.83
2023-01-29T01:45:48.647Z,22.67
2023-01-29T01:48:21.601Z,22.10
2023-01-29T01:50:53.647Z,20.60
2023-01-29T01:53:27.671Z,20.83
2023-01-29T01:56:00.141Z,21.07
2023-01-29T01:58:32.964Z,23.10
2023-01-29T02:01:01.845Z,22.00
2023-01-29T02:03:54.180Z,21.73
2023-01-29T02:06:40.553Z,20.80
2023-01-29T02:09:32.768Z,23.83
2023-01-29T02:12:01.950Z,22.23
2023-01-29T02:14:32.049Z,22.63
2023-01-29T02:17:02.326Z,23.60
2023-01-29T02:19:43.050Z,23.17
2023-01-29T02:22:40.488Z,22.93
2023-01-29T02:25:48.717Z,22.07
2023-01-29T02:28:31.287Z,23.50
2023-01-29T02:31:08.748Z,21.47
2023-01-29T02:33:46.748Z,22.63
2023-01-29T02:36:23.173Z,23.30
2023-01-29T02:39:00.793Z,23.73
2023-01-29T02:41:36.282Z,23.30
2023-01-29T02:44:12.410Z,23.63
2023-01-29T02:46:52.455Z,23.80
2023-01-29T02:49:26.414Z,23.10
2023-01-29T02:52:01.858Z,21.50
2023-01-29T02:54:35.269Z,22.47
2023-01-29T02:57:14.790Z,22.67
2023-01-29T02:59:49.498Z,20.67
2023-01-29T03:02:26.102Z,22.87
2023-01-29T03:05:01.210Z,24.07
2023-01-29T03:07:44.980Z,24.80
2023-01-29T03:10:25.921Z,24.17
2023-01-29T03:12:59.775Z,23.20
2023-01-29T03:15:38.781Z,21.93
2023-01-29T03:18:27.879Z,22.43
2023-01-29T03:21:26.542Z,22.83
2023-01-29T03:24:15.842Z,22.87
2023-01-29T03:27:02.947Z,21.90
2023-01-29T03:29:56.668Z,22.80
2023-01-29T03:32:32.844Z,23.03
2023-01-29T03:35:05.700Z,22.40
2023-01-29T03:37:39.118Z,21.97
2023-01-29T03:40:09.638Z,22.80
2023-01-29T03:42:50.738Z,22.33
2023-01-29T03:45:27.934Z,22.00
2023-01-29T03:48:06.889Z,23.33
2023-01-29T03:50:43.089Z,23.00
2023-01-29T03:53:22.041Z,22.97
2023-01-29T03:56:01.324Z,23.73
2023-01-29T03:58:39.744Z,22.37
2023-01-29T04:01:16.156Z,22.83
2023-01-29T04:03:51.431Z,23.90
2023-01-29T04:06:23.233Z,22.30
2023-01-29T04:09:08.713Z,21.70
2023-01-29T04:11:46.553Z,22.90
2023-01-29T04:14:16.137Z,21.67
2023-01-29T04:16:52.258Z,22.37
2023-01-29T04:19:26.178Z,23.43
2023-01-29T04:22:03.169Z,23.00
2023-01-29T04:24:32.570Z,23.50
2023-01-29T04:27:14.155Z,21.33
2023-01-29T04:29:58.701Z,23.47
2023-01-29T04:32:32.236Z,22.17
2023-01-29T04:35:13.343Z,23.53
2023-01-29T04:37:46.132Z,22.13
2023-01-29T04:40:24.500Z,20.97
2023-01-29T04:43:00.260Z,21.90
2023-01-29T04:45:37.732Z,21.63
2023-01-29T04:48:19.695Z,22.23
2023-01-29T04:50:59.212Z,21.60
2023-01-29T04:53:37.127Z,21.63
2023-01-29T04:56:12.633Z,22.77
2023-01-29T04:58:44.834Z,21.27
2023-01-29T05:01:16.787Z,21.63
2023-01-29T05:03:51.145Z,22.03
2023-01-29T05:06:24.871Z,21.40
2023-01-29T05:08:55.424Z,24.00
2023-01-29T05:11:25.934Z,21.07
2023-01-29T05:13:55.486Z,21.00
2023-01-29T05:16:26.540Z,22.77
2023-01-29T05:18:55.388Z,23.60
2023-01-29T05:21:26.170Z,21.40
2023-01-29T05:24:15.766Z,22.80
2023-01-29T05:27:02.821Z,22.33
2023-01-29T05:29:31.318Z,20.47
2023-01-29T05:31:59.984Z,21.03
2023-01-29T05:34:28.469Z,22.50
2023-01-29T05:36:58.425Z,21.67
2023-01-29T05:39:26.956Z,22.50
2023-01-29T05:41:55.449Z,21.50
2023-01-29T05:44:23.853Z,21.70
2023-01-29T05:46:52.655Z,22.70
2023-01-29T05:49:22.561Z,20.73
2023-01-29T05:51:51.129Z,21.25
2023-01-29T05:54:21.108Z,23.65
2023-01-29T05:56:49.593Z,22.70
2023-01-29T05:59:18.449Z,23.20
2023-01-29T06:01:46.959Z,22.80
2023-01-29T06:04:15.377Z,24.15
2023-01-29T06:06:43.952Z,23.10
2023-01-29T06:09:12.609Z,20.92
2023-01-29T06:11:42.571Z,22.00
2023-01-29T06:14:11.091Z,23.20
2023-01-29T06:16:39.604Z,21.90
2023-01-29T06:19:08.338Z,21.48
2023-01-29T06:21:36.822Z,23.00
2023-01-29T06:24:05.814Z,22.70
2023-01-29T06:26:34.327Z,22.80
2023-01-29T06:29:04.188Z,22.63
2023-01-29T06:31:38.903Z,22.13
2023-01-29T06:34:08.496Z,21.10
2023-01-29T06:36:37.162Z,21.98
2023-01-29T06:39:05.954Z,22.17
2023-01-29T06:41:34.871Z,22.53
2023-01-29T06:44:04.712Z,21.77
2023-01-29T06:46:33.168Z,21.73
2023-01-29T06:49:01.681Z,23.10
2023-01-29T06:51:30.206Z,23.70
2023-01-29T06:53:58.889Z,22.10
2023-01-29T06:56:27.422Z,21.67
2023-01-29T06:58:55.931Z,21.00
2023-01-29T07:01:35.760Z,22.30
2023-01-29T07:04:05.370Z,21.67
2023-01-29T07:06:34.642Z,21.63
2023-01-29T07:09:03.223Z,22.60
2023-01-29T07:11:32.024Z,21.30
2023-01-29T07:14:00.490Z,21.97
2023-01-29T07:16:30.424Z,22.03
2023-01-29T07:18:58.919Z,21.50
2023-01-29T07:21:28.091Z,21.27
2023-01-29T07:23:56.613Z,20.37
2023-01-29T07:26:25.259Z,22.17
2023-01-29T07:28:53.675Z,18.60
2023-01-29T07:31:23.040Z,15.70
2023-01-29T07:33:53.017Z,16.60
2023-01-29T07:36:21.495Z,17.40
2023-01-29T07:38:50.955Z,17.53
2023-01-29T07:41:19.717Z,18.27
2023-01-29T07:43:48.842Z,19.03
2023-01-29T07:46:17.337Z,17.80
2023-01-29T07:48:45.944Z,18.97
2023-01-29T07:51:17.177Z,18.67
2023-01-29T07:53:45.723Z,20.10
2023-01-29T07:56:14.388Z,20.77
2023-01-29T07:58:42.930Z,20.83
2023-01-29T08:01:11.603Z,23.10
2023-01-29T08:03:40.078Z,23.60
2023-01-29T08:06:08.939Z,23.70
2023-01-29T08:08:38.764Z,24.60
2023-01-29T08:11:07.479Z,23.20
2023-01-29T08:13:36.023Z,24.60
2023-01-29T08:16:05.741Z,26.40
2023-01-29T08:18:34.402Z,24.10
2023-01-29T08:21:03.263Z,23.80
2023-01-29T08:23:32.072Z,24.10
2023-01-29T08:26:04.147Z,24.27
2023-01-29T08:28:32.903Z,23.80
2023-01-29T08:31:01.885Z,23.57
2023-01-29T08:33:38.611Z,22.60
2023-01-29T08:36:08.784Z,22.87
2023-01-29T08:38:37.445Z,24.10
2023-01-29T08:41:07.977Z,23.20
2023-01-29T08:43:37.202Z,24.10
2023-01-29T08:46:06.594Z,23.50
2023-01-29T08:48:35.457Z,22.50
2023-01-29T08:51:04.641Z,21.10
2023-01-29T08:53:33.759Z,22.80
2023-01-29T08:56:02.290Z,21.53
2023-01-29T08:58:32.285Z,24.00
2023-01-29T09:01:08.009Z,23.97
2023-01-29T09:03:36.771Z,23.00
2023-01-29T09:06:05.598Z,23.10
2023-01-29T09:08:34.270Z,22.13
2023-01-29T09:11:02.884Z,22.73
2023-01-29T09:13:32.869Z,21.60
2023-01-29T09:16:02.163Z,22.13
2023-01-29T09:18:31.485Z,21.00
2023-01-29T09:21:00.231Z,21.80
2023-01-29T09:23:28.860Z,21.67
2023-01-29T09:25:57.355Z,22.60
2023-01-29T09:28:26.300Z,21.83
2023-01-29T09:30:56.229Z,23.17
2023-01-29T09:33:26.227Z,23.30
2023-01-29T09:35:54.729Z,21.80
2023-01-29T09:38:23.326Z,23.17
2023-01-29T09:40:59.519Z,22.70
2023-01-29T09:43:40.516Z,21.33
2023-01-29T09:46:18.370Z,22.63
2023-01-29T09:48:48.125Z,21.33
2023-01-29T09:51:26.298Z,21.23
2023-01-29T09:53:59.964Z,21.40
2023-01-29T09:56:29.178Z,21.80
2023-01-29T09:59:01.347Z,22.03
2023-01-29T10:01:39.504Z,23.20
2023-01-29T10:04:43.527Z,24.50
2023-01-29T10:07:27.777Z,22.07
2023-01-29T10:10:14.046Z,21.97
2023-01-29T10:12:57.713Z,21.70
2023-01-29T10:15:46.033Z,23.43
2023-01-29T10:18:43.991Z,32.63
2023-01-29T10:21:28.168Z,22.53
2023-01-29T10:24:05.297Z,20.33
2023-01-29T10:26:36.177Z,21.40
2023-01-29T10:29:08.467Z,22.33
2023-01-29T10:31:40.545Z,22.40
2023-01-29T10:34:16.096Z,22.90
2023-01-29T10:36:46.430Z,23.77
2023-01-29T10:39:19.471Z,22.20
2023-01-29T10:41:59.202Z,23.23
2023-01-29T10:44:37.590Z,25.67
2023-01-29T10:47:30.518Z,26.27
2023-01-29T10:50:18.767Z,25.10
2023-01-29T10:53:06.348Z,23.00
2023-01-29T10:55:47.842Z,23.97
2023-01-29T10:58:27.779Z,23.07
2023-01-29T11:00:56.206Z,23.83
2023-01-29T11:03:28.944Z,24.90
2023-01-29T11:06:10.212Z,24.37
2023-01-29T11:08:43.584Z,24.70
2023-01-29T11:11:15.595Z,25.47
2023-01-29T11:13:47.308Z,25.10
2023-01-29T11:16:15.745Z,24.17
2023-01-29T11:18:57.932Z,24.27
2023-01-29T11:21:29.285Z,23.87
2023-01-29T11:24:12.719Z,24.20
2023-01-29T11:26:43.732Z,24.10
2023-01-29T11:29:34.800Z,24.70
2023-01-29T11:32:06.798Z,24.57
2023-01-29T11:34:35.634Z,24.30
2023-01-29T11:37:16.088Z,22.10
2023-01-29T11:39:47.229Z,23.10
2023-01-29T11:42:21.563Z,21.77
2023-01-29T11:44:50.726Z,23.50
2023-01-29T11:47:24.040Z,23.37
2023-01-29T11:49:55.165Z,23.70
2023-01-29T11:52:27.148Z,21.90
2023-01-29T11:54:59.787Z,23.63
2023-01-29T11:57:31.488Z,24.33
2023-01-29T12:00:02.499Z,27.27
2023-01-29T12:02:39.386Z,23.50
2023-01-29T12:05:16.464Z,24.53
2023-01-29T12:07:49.091Z,23.13
2023-01-29T12:10:36.175Z,22.63
2023-01-29T12:13:20.143Z,22.57
2023-01-29T12:15:49.919Z,23.80
2023-01-29T12:18:27.140Z,23.60
2023-01-29T12:20:58.689Z,22.43
2023-01-29T12:23:36.485Z,23.40
2023-01-29T12:26:10.682Z,21.20
2023-01-29T12:28:45.586Z,22.27
2023-01-29T12:31:25.414Z,21.97
2023-01-29T12:34:01.352Z,22.40
2023-01-29T12:36:35.795Z,20.43
2023-01-29T12:39:05.869Z,18.00
2023-01-29T12:41:40.734Z,21.27
2023-01-29T12:44:15.605Z,21.90
2023-01-29T12:46:50.577Z,19.80
2023-01-29T12:49:26.995Z,17.77
2023-01-29T12:51:59.259Z,19.27
2023-01-29T12:54:36.203Z,18.43
2023-01-29T12:57:10.356Z,19.00
2023-01-29T12:59:43.914Z,18.80
2023-01-29T13:02:25.611Z,17.40
2023-01-29T13:05:00.826Z,16.50
2023-01-29T13:07:32.978Z,18.80
2023-01-29T13:10:13.711Z,17.73
2023-01-29T13:12:52.726Z,16.83
2023-01-29T13:15:26.447Z,16.80
2023-01-29T13:17:58.141Z,15.03
2023-01-29T13:20:30.562Z,15.63
2023-01-29T13:23:05.780Z,13.70
2023-01-29T13:25:35.580Z,13.97
2023-01-29T13:28:04.403Z,16.07
2023-01-29T13:30:35.361Z,15.10
2023-01-29T13:33:12.872Z,15.93
2023-01-29T13:35:44.159Z,15.27
2023-01-29T13:38:26.175Z,15.87
2023-01-29T13:41:01.274Z,16.07
2023-01-29T13:43:36.125Z,15.80
2023-01-29T13:46:10.477Z,15.90
2023-01-29T13:48:44.504Z,16.00
2023-01-29T13:51:19.564Z,15.90
2023-01-29T13:53:56.763Z,16.47
2023-01-29T13:56:59.302Z,16.80
2023-01-29T13:59:53.269Z,16.23
2023-01-29T14:02:24.796Z,15.90
2023-01-29T14:04:53.792Z,14.50
2023-01-29T14:07:50.264Z,15.10
2023-01-29T14:10:21.828Z,14.83
2023-01-29T14:12:53.244Z,13.63
2023-01-29T14:15:25.690Z,13.23
2023-01-29T14:18:19.512Z,13.43
2023-01-29T14:21:21.951Z,12.77
2023-01-29T14:23:53.565Z,14.00
2023-01-29T14:26:32.249Z,13.40
2023-01-29T14:29:06.429Z,13.60
2023-01-29T14:31:47.901Z,13.47
2023-01-29T14:34:23.771Z,14.77
2023-01-29T14:36:56.359Z,13.80
2023-01-29T14:39:36.377Z,13.30
2023-01-29T14:42:16.022Z,14.50
2023-01-29T14:45:22.514Z,12.17
2023-01-29T14:47:57.378Z,13.63
2023-01-29T14:50:49.246Z,12.17
2023-01-29T14:53:30.490Z,14.20
2023-01-29T14:56:02.367Z,13.87
2023-01-29T14:58:39.197Z,13.23
2023-01-29T15:01:20.804Z,14.47
2023-01-29T15:03:52.388Z,13.20
2023-01-29T15:06:26.949Z,14.77
2023-01-29T15:09:01.958Z,14.37
2023-01-29T15:11:37.162Z,14.57
2023-01-29T15:14:19.011Z,14.00
2023-01-29T15:16:56.403Z,13.80
2023-01-29T15:19:29.744Z,14.27
2023-01-29T15:22:12.779Z,14.87
2023-01-29T15:24:43.263Z,13.73
2023-01-29T15:27:16.027Z,14.73
2023-01-29T15:29:48.683Z,13.90
2023-01-29T15:32:32.009Z,15.13
2023-01-29T15:35:01.987Z,15.00
2023-01-29T15:37:33.492Z,15.80
2023-01-29T15:40:03.272Z,14.80
2023-01-29T15:42:44.769Z,15.10
2023-01-29T15:45:23.787Z,14.80
2023-01-29T15:47:56.601Z,15.13
2023-01-29T15:50:25.560Z,15.63
2023-01-29T15:52:55.844Z,18.53
2023-01-29T15:55:25.221Z,16.63
2023-01-29T15:57:54.348Z,16.43
2023-01-29T16:00:26.154Z,18.10
2023-01-29T16:02:57.066Z,20.80
2023-01-29T16:05:29.356Z,26.13
2023-01-29T16:07:58.809Z,28.17
2023-01-29T16:10:30.455Z,24.20
2023-01-29T16:12:59.882Z,26.80
2023-01-29T16:15:36.728Z,29.37
2023-01-29T16:18:22.299Z,29.27
2023-01-29T16:20:54.182Z,24.30
2023-01-29T16:23:27.708Z,20.87
2023-01-29T16:25:58.134Z,19.50
2023-01-29T16:28:26.666Z,19.30
2023-01-29T16:31:01.922Z,18.40
2023-01-29T16:33:36.781Z,17.20
2023-01-29T16:36:11.751Z,18.07
2023-01-29T16:38:43.294Z,19.70
2023-01-29T16:41:31.391Z,21.77
2023-01-29T16:44:03.130Z,24.17
2023-01-29T16:46:37.048Z,20.67
2023-01-29T16:49:51.165Z,18.30
2023-01-29T16:52:23.964Z,15.43
2023-01-29T16:54:52.952Z,15.13
2023-01-29T16:57:26.069Z,15.97
2023-01-29T16:59:57.184Z,16.23
2023-01-29T17:02:28.765Z,16.43
2023-01-29T17:05:03.405Z,16.90
2023-01-29T17:07:33.955Z,15.73
2023-01-29T17:10:05.577Z,17.20
2023-01-29T17:12:36.760Z,16.67
2023-01-29T17:15:34.769Z,17.13
2023-01-29T17:18:03.964Z,16.60
2023-01-29T17:20:34.199Z,17.27
2023-01-29T17:23:02.663Z,16.43
2023-01-29T17:25:31.245Z,16.13
2023-01-29T17:28:01.931Z,18.57
2023-01-29T17:30:34.720Z,19.37
2023-01-29T17:33:03.770Z,16.27
2023-01-29T17:35:33.754Z,18.43
2023-01-29T17:38:02.359Z,17.50
2023-01-29T17:40:36.341Z,19.57
2023-01-29T17:43:04.905Z,18.57
2023-01-29T17:45:33.344Z,17.90
2023-01-29T17:48:02.064Z,17.30
2023-01-29T17:50:34.048Z,18.00
2023-01-29T17:53:02.912Z,22.60
2023-01-29T17:55:31.425Z,21.27
2023-01-29T17:58:00.162Z,20.30
2023-01-29T18:00:28.817Z,17.80
2023-01-29T18:02:58.094Z,16.60
2023-01-29T18:05:26.563Z,17.97
2023-01-29T18:07:56.593Z,16.63
2023-01-29T18:10:25.409Z,15.77
2023-01-29T18:12:53.896Z,18.70
2023-01-29T18:15:22.476Z,18.60
2023-01-29T18:17:53.003Z,18.70
2023-01-29T18:20:25.512Z,19.40
2023-01-29T18:22:54.227Z,20.13
2023-01-29T18:25:25.715Z,19.47
2023-01-29T18:27:54.399Z,19.53
2023-01-29T18:30:23.087Z,19.00
2023-01-29T18:32:51.827Z,20.30
2023-01-29T18:35:20.518Z,19.57
2023-01-29T18:37:48.993Z,20.60
2023-01-29T18:40:18.113Z,19.97
2023-01-29T18:42:48.554Z,20.00
2023-01-29T18:45:17.442Z,20.83
2023-01-29T18:47:46.374Z,18.67
2023-01-29T18:50:15.019Z,17.27
2023-01-29T18:52:45.303Z,18.57
2023-01-29T18:55:13.826Z,19.93
2023-01-29T18:58:26.957Z,19.87
2023-01-29T19:00:32.256Z,21.33
2023-01-29T19:03:00.941Z,21.17
2023-01-29T19:05:29.365Z,20.60
2023-01-29T19:07:57.956Z,21.17
2023-01-29T19:10:26.354Z,21.20
2023-01-29T19:12:54.905Z,21.20
2023-01-29T19:15:23.552Z,19.97
2023-01-29T19:17:53.579Z,23.60
2023-01-29T19:20:22.205Z,23.83
2023-01-29T19:22:50.654Z,19.10
2023-01-29T19:25:20.263Z,19.20
2023-01-29T19:27:49.053Z,18.57
2023-01-29T19:30:17.957Z,18.90
2023-01-29T19:32:47.715Z,19.33
2023-01-29T19:35:17.856Z,18.70
2023-01-29T19:37:46.529Z,19.00
2023-01-29T19:40:15.281Z,19.70
2023-01-29T19:42:43.846Z,18.93
2023-01-29T19:45:12.575Z,24.03
2023-01-29T19:47:41.628Z,20.07
2023-01-29T19:50:11.749Z,23.40
2023-01-29T19:52:51.274Z,18.97
2023-01-29T19:55:21.661Z,19.73
2023-01-29T19:57:52.954Z,18.43
2023-01-29T20:00:22.601Z,18.70
2023-01-29T20:02:51.364Z,20.40
2023-01-29T20:05:20.627Z,18.50
2023-01-29T20:07:50.717Z,17.40
2023-01-29T20:10:19.794Z,17.70
2023-01-29T20:12:48.740Z,15.90
2023-01-29T20:15:17.438Z,16.57
2023-01-29T20:17:46.062Z,18.90
2023-01-29T20:20:16.680Z,20.10
2023-01-29T20:22:45.588Z,20.13
2023-01-29T20:25:16.552Z,19.97
2023-01-29T20:27:45.150Z,18.30
2023-01-29T20:30:14.302Z,18.30
2023-01-29T20:32:42.962Z,19.07
2023-01-29T20:35:11.713Z,17.50
2023-01-29T20:37:40.269Z,17.13
2023-01-29T20:40:10.424Z,17.57
2023-01-29T20:42:40.908Z,18.00
2023-01-29T20:45:10.171Z,16.17
2023-01-29T20:47:39.071Z,20.90
2023-01-29T20:50:09.440Z,32.20
2023-01-29T20:52:38.587Z,49.50
2023-01-29T20:55:09.737Z,55.13
2023-01-29T20:57:40.682Z,35.10
2023-01-29T21:00:10.269Z,26.67
2023-01-29T21:02:39.197Z,22.20
2023-01-29T21:05:08.181Z,18.00
2023-01-29T21:07:37.243Z,18.57
2023-01-29T21:10:06.427Z,17.20
2023-01-29T21:12:35.020Z,19.17
2023-01-29T21:15:05.513Z,16.93
2023-01-29T21:17:34.206Z,18.63
2023-01-29T21:20:04.195Z,18.00
2023-01-29T21:22:33.434Z,17.40
2023-01-29T21:25:02.064Z,16.00
2023-01-29T21:27:30.768Z,17.57
2023-01-29T21:29:59.359Z,17.17
2023-01-29T21:32:29.237Z,16.13
2023-01-29T21:34:57.790Z,16.97
2023-01-29T21:37:26.293Z,16.80
2023-01-29T21:39:54.791Z,18.23
2023-01-29T21:42:40.823Z,17.47
2023-01-29T21:45:10.945Z,19.70
2023-01-29T21:47:40.830Z,21.57
2023-01-29T21:50:10.668Z,19.70
2023-01-29T21:52:39.272Z,18.67
2023-01-29T21:55:08.440Z,20.90
2023-01-29T21:57:37.137Z,20.43
2023-01-29T22:00:07.124Z,18.30
2023-01-29T22:02:35.668Z,18.70
2023-01-29T22:05:18.064Z,17.97
2023-01-29T22:07:47.796Z,19.43
2023-01-29T22:10:17.505Z,16.30
2023-01-29T22:12:46.694Z,16.83
2023-01-29T22:15:16.159Z,17.23
2023-01-29T22:17:44.986Z,18.27
2023-01-29T22:20:16.438Z,18.47
2023-01-29T22:22:45.533Z,19.53
2023-01-29T22:25:20.136Z,17.93
2023-01-29T22:27:48.770Z,19.67
2023-01-29T22:30:18.208Z,18.00
2023-01-29T22:32:46.877Z,18.33
2023-01-29T22:35:16.965Z,18.07
2023-01-29T22:37:46.196Z,17.90
2023-01-29T22:40:15.336Z,16.23
2023-01-29T22:42:44.073Z,19.13
2023-01-29T22:45:13.230Z,18.17
2023-01-29T22:47:42.081Z,17.10
2023-01-29T22:50:12.011Z,18.10
2023-01-29T22:52:42.691Z,18.20
2023-01-29T22:55:12.731Z,19.00
2023-01-29T22:57:41.638Z,21.20
2023-01-29T23:00:12.260Z,19.73
2023-01-29T23:02:40.825Z,20.97
2023-01-29T23:05:09.810Z,19.30
2023-01-29T23:07:38.805Z,18.03
2023-01-29T23:10:09.921Z,18.70
2023-01-29T23:12:38.779Z,17.07
2023-01-29T23:15:08.440Z,20.60
2023-01-29T23:17:37.017Z,21.10
2023-01-29T23:20:06.205Z,22.37
2023-01-29T23:22:34.735Z,30.43
2023-01-29T23:25:03.145Z,22.73
2023-01-29T23:27:32.026Z,23.70
2023-01-29T23:30:00.474Z,21.23
2023-01-29T23:32:28.988Z,20.53
2023-01-29T23:34:57.494Z,18.70
2023-01-29T23:37:26.413Z,17.90
2023-01-29T23:39:54.800Z,17.70
2023-01-29T23:42:23.397Z,18.40
2023-01-29T23:44:53.188Z,17.77
2023-01-29T23:47:21.662Z,16.10
2023-01-29T23:49:50.106Z,17.63
2023-01-29T23:52:18.586Z,17.33
2023-01-29T23:54:47.026Z,31.60
2023-01-29T23:57:15.517Z,38.40
2023-01-29T23:59:44.132Z,20.00
